Time;durP1;ratioP1;P1;durP2;ratioP2;P2;SDS_P1;SDS_P2;PMS_P1;PMS_P2;Temp;Humidity;BMP_temperature;BMP_pressure;BME280_temperature;BME280_humidity;BME280_pressure;Samples;Min_cycle;Max_cycle;Signal;HPM_P1;HPM_P2
2022/09/12 00:01:52;;;;;;;3.03;2.20;;;;;;;;;;5115345;28;20206;-57
2022/09/12 00:04:19;;;;;;;4.28;2.45;;;;;;;;;;5112857;28;20224;-57
2022/09/12 00:06:46;;;;;;;2.50;2.03;;;;;;;;;;5115115;28;20530;-57
2022/09/12 00:09:13;;;;;;;3.35;2.30;;;;;;;;;;5112244;28;20198;-57
2022/09/12 00:11:44;;;;;;;2.65;2.45;;;;;;;;;;5117361;28;20245;-57
2022/09/12 00:14:16;;;;;;;3.67;2.20;;;;;;;;;;5119747;28;20204;-57
2022/09/12 00:16:43;;;;;;;3.47;2.47;;;;;;;;;;5119510;28;20208;-56
2022/09/12 00:19:11;;;;;;;3.20;2.50;;;;;;;;;;5119505;28;20202;-57
2022/09/12 00:21:39;;;;;;;2.90;2.30;;;;;;;;;;5119850;28;20222;-57
2022/09/12 00:24:06;;;;;;;3.13;2.40;;;;;;;;;;5119177;28;20225;-57
2022/09/12 00:26:33;;;;;;;2.58;2.20;;;;;;;;;;5119147;28;20534;-57
2022/09/12 00:29:00;;;;;;;3.28;2.40;;;;;;;;;;5119083;28;20201;-57
2022/09/12 00:31:27;;;;;;;3.53;2.30;;;;;;;;;;5118905;28;20312;-57
2022/09/12 00:33:57;;;;;;;1.90;1.80;;;;;;;;;;5118792;27;20626;-57
2022/09/12 00:36:25;;;;;;;3.53;2.08;;;;;;;;;;5118836;28;20202;-58
2022/09/12 00:38:53;;;;;;;2.63;1.95;;;;;;;;;;5119152;28;20208;-57
2022/09/12 00:41:23;;;;;;;2.17;1.90;;;;;;;;;;5119045;28;20210;-56
2022/09/12 00:43:56;;;;;;;2.65;1.48;;;;;;;;;;5118961;28;20209;-56
2022/09/12 00:46:42;;;;;;;2.63;1.85;;;;;;;;;;5119782;28;20206;-57
2022/09/12 00:49:12;;;;;;;4.07;2.13;;;;;;;;;;5119088;28;20250;-57
2022/09/12 00:51:43;;;;;;;3.28;2.08;;;;;;;;;;5118843;28;20241;-57
2022/09/12 00:54:14;;;;;;;2.33;2.00;;;;;;;;;;5118712;28;20285;-56
2022/09/12 00:56:42;;;;;;;2.85;2.00;;;;;;;;;;5118980;28;20254;-57
2022/09/12 00:59:14;;;;;;;2.33;2.13;;;;;;;;;;5113776;28;20324;-58
2022/09/12 01:01:42;;;;;;;4.07;2.40;;;;;;;;;;5116292;28;20231;-57
2022/09/12 01:04:10;;;;;;;2.45;2.25;;;;;;;;;;5117931;28;20194;-57
2022/09/12 01:06:42;;;;;;;3.08;2.40;;;;;;;;;;5117680;28;20541;-57
2022/09/12 01:09:13;;;;;;;2.75;2.30;;;;;;;;;;5118445;28;20212;-57
2022/09/12 01:11:44;;;;;;;5.10;2.28;;;;;;;;;;5117456;28;20229;-57
2022/09/12 01:14:13;;;;;;;2.88;2.13;;;;;;;;;;5118509;28;20628;-57
2022/09/12 01:16:41;;;;;;;4.22;2.25;;;;;;;;;;5118169;27;20228;-57
2022/09/12 01:19:28;;;;;;;3.22;2.10;;;;;;;;;;5100441;28;20206;-55
2022/09/12 01:22:24;;;;;;;5.68;2.33;;;;;;;;;;5118234;28;20262;-57
2022/09/12 01:25:02;;;;;;;2.40;2.20;;;;;;;;;;5117190;28;20198;-57
2022/09/12 01:28:02;;;;;;;3.20;2.08;;;;;;;;;;5117524;28;20190;-56
2022/09/12 01:30:46;;;;;;;2.10;1.90;;;;;;;;;;5105786;28;20202;-57
2022/09/12 01:33:37;;;;;;;3.00;2.28;;;;;;;;;;5117158;28;20206;-57
2022/09/12 01:36:10;;;;;;;3.40;2.17;;;;;;;;;;5117979;28;20609;-57
2022/09/12 01:38:46;;;;;;;1.80;1.70;;;;;;;;;;5117222;28;20274;-57
2022/09/12 01:41:23;;;;;;;1.98;1.80;;;;;;;;;;5100515;28;20258;-57
2022/09/12 01:44:13;;;;;;;3.78;1.88;;;;;;;;;;5116836;28;20657;-57
2022/09/12 01:47:00;;;;;;;1.85;1.63;;;;;;;;;;5116748;28;20198;-56
2022/09/12 01:49:45;;;;;;;3.33;1.80;;;;;;;;;;5099928;28;20257;-57
2022/09/12 01:52:17;;;;;;;1.63;1.40;;;;;;;;;;5117567;28;20617;-57
2022/09/12 01:54:48;;;;;;;4.68;1.42;;;;;;;;;;5112327;28;20218;-56
2022/09/12 01:57:21;;;;;;;1.88;1.45;;;;;;;;;;5117738;28;20201;-57
2022/09/12 01:59:50;;;;;;;2.63;1.52;;;;;;;;;;5116734;28;20209;-57
2022/09/12 02:02:22;;;;;;;1.85;1.30;;;;;;;;;;5115247;28;20687;-57
2022/09/12 02:05:03;;;;;;;1.40;1.20;;;;;;;;;;5116914;28;20235;-57
2022/09/12 02:07:30;;;;;;;1.33;1.20;;;;;;;;;;5116394;28;20522;-57
2022/09/12 02:10:06;;;;;;;2.47;1.45;;;;;;;;;;5117234;28;20206;-57
2022/09/12 02:12:39;;;;;;;4.20;1.38;;;;;;;;;;5116435;28;20226;-57
2022/09/12 02:15:08;;;;;;;3.78;1.40;;;;;;;;;;5116659;28;20205;-57
2022/09/12 02:17:38;;;;;;;1.42;1.23;;;;;;;;;;5117261;28;20206;-56
2022/09/12 02:20:10;;;;;;;1.25;1.15;;;;;;;;;;5099314;28;20214;-58
2022/09/12 02:22:59;;;;;;;2.35;1.40;;;;;;;;;;5116562;28;20190;-58
2022/09/12 02:25:28;;;;;;;1.33;1.23;;;;;;;;;;5117351;28;20289;-57
2022/09/12 02:28:02;;;;;;;1.30;1.20;;;;;;;;;;5115847;28;20654;-57
2022/09/12 02:30:37;;;;;;;1.75;1.10;;;;;;;;;;5115908;28;20209;-57
2022/09/12 02:33:33;;;;;;;3.75;1.27;;;;;;;;;;5115773;28;20684;-57
2022/09/12 02:36:13;;;;;;;1.30;1.20;;;;;;;;;;5079809;28;20206;-57
2022/09/12 02:38:44;;;;;;;1.83;1.50;;;;;;;;;;5115727;28;20202;-57
2022/09/12 02:41:13;;;;;;;4.82;1.17;;;;;;;;;;5115816;28;20232;-58
2022/09/12 02:43:40;;;;;;;2.10;1.30;;;;;;;;;;5116760;28;20216;-57
2022/09/12 02:46:12;;;;;;;4.32;1.25;;;;;;;;;;5116571;28;20263;-57
2022/09/12 02:48:41;;;;;;;3.25;1.30;;;;;;;;;;5115433;28;20233;-57
2022/09/12 02:51:10;;;;;;;1.52;1.10;;;;;;;;;;5109856;28;20690;-57
2022/09/12 02:53:37;;;;;;;1.30;1.20;;;;;;;;;;5115455;28;20603;-57
2022/09/12 02:56:11;;;;;;;3.92;1.40;;;;;;;;;;5115336;28;20263;-57
2022/09/12 02:58:37;;;;;;;2.47;1.15;;;;;;;;;;5115659;28;20190;-57
2022/09/12 03:01:12;;;;;;;1.75;1.20;;;;;;;;;;5116365;28;20209;-57
2022/09/12 03:03:57;;;;;;;1.70;1.15;;;;;;;;;;5115236;28;20293;-57
2022/09/12 03:06:29;;;;;;;1.77;1.40;;;;;;;;;;5116320;28;20216;-56
2022/09/12 03:09:00;;;;;;;1.52;1.33;;;;;;;;;;5115693;28;20568;-57
2022/09/12 03:11:49;;;;;;;1.95;1.15;;;;;;;;;;5115167;28;20234;-57
2022/09/12 03:14:37;;;;;;;1.85;1.60;;;;;;;;;;5116525;28;20524;-57
2022/09/12 03:17:13;;;;;;;2.60;1.52;;;;;;;;;;5116205;28;20194;-58
2022/09/12 03:20:10;;;;;;;2.38;1.25;;;;;;;;;;5115209;28;20181;-58
2022/09/12 03:23:04;;;;;;;1.92;1.40;;;;;;;;;;5116000;28;20221;-57
2022/09/12 03:25:42;;;;;;;2.20;1.33;;;;;;;;;;5115040;28;20542;-58
2022/09/12 03:28:11;;;;;;;1.50;1.40;;;;;;;;;;5097749;28;20201;-58
2022/09/12 03:30:44;;;;;;;1.52;1.42;;;;;;;;;;5115253;28;20204;-58
2022/09/12 03:33:13;;;;;;;2.35;1.90;;;;;;;;;;5115486;28;20696;-58
2022/09/12 03:35:40;;;;;;;4.03;1.98;;;;;;;;;;5115522;28;20289;-58
2022/09/12 03:38:07;;;;;;;2.35;1.60;;;;;;;;;;5115172;28;20293;-59
2022/09/12 03:40:36;;;;;;;2.90;1.90;;;;;;;;;;5115369;28;20202;-59
2022/09/12 03:43:04;;;;;;;2.53;2.00;;;;;;;;;;5115089;28;20209;-58
2022/09/12 03:45:31;;;;;;;4.30;2.08;;;;;;;;;;5109522;28;20260;-58
2022/09/12 03:47:58;;;;;;;2.85;2.20;;;;;;;;;;5115350;28;20250;-58
2022/09/12 03:50:25;;;;;;;3.78;2.38;;;;;;;;;;5115438;28;20535;-58
2022/09/12 03:52:52;;;;;;;2.90;2.30;;;;;;;;;;5115618;28;20229;-57
2022/09/12 03:55:19;;;;;;;4.95;2.22;;;;;;;;;;5115235;28;20217;-58
2022/09/12 03:57:46;;;;;;;2.60;2.08;;;;;;;;;;5115063;28;20198;-57
2022/09/12 04:00:13;;;;;;;2.40;1.90;;;;;;;;;;5114980;28;20622;-58
2022/09/12 04:02:45;;;;;;;2.22;2.00;;;;;;;;;;5115027;28;20665;-58
2022/09/12 04:05:12;;;;;;;2.78;2.10;;;;;;;;;;5107123;27;20226;-58
2022/09/12 04:07:39;;;;;;;2.95;2.20;;;;;;;;;;5110698;28;20552;-58
2022/09/12 04:10:06;;;;;;;3.38;2.10;;;;;;;;;;5113622;27;20222;-58
2022/09/12 04:12:36;;;;;;;3.47;2.28;;;;;;;;;;5113059;28;20249;-58
2022/09/12 04:15:04;;;;;;;4.38;2.13;;;;;;;;;;5113967;28;20233;-59
2022/09/12 04:17:31;;;;;;;3.58;2.13;;;;;;;;;;5106092;28;20280;-58
2022/09/12 04:19:57;;;;;;;3.35;2.17;;;;;;;;;;5093411;28;20234;-57
2022/09/12 04:22:24;;;;;;;4.10;2.28;;;;;;;;;;5094369;28;20268;-58
2022/09/12 04:24:51;;;;;;;2.40;2.10;;;;;;;;;;5093640;28;20226;-58
2022/09/12 04:27:18;;;;;;;3.03;2.28;;;;;;;;;;5093829;28;20299;-56
2022/09/12 04:29:45;;;;;;;4.18;2.45;;;;;;;;;;5093843;28;20727;-59
2022/09/12 04:32:13;;;;;;;2.50;2.28;;;;;;;;;;5093785;28;20234;-58
2022/09/12 04:34:40;;;;;;;3.85;2.90;;;;;;;;;;5097743;28;20218;-54
2022/09/12 04:37:07;;;;;;;3.05;2.38;;;;;;;;;;5114175;28;20686;-57
2022/09/12 04:39:34;;;;;;;3.33;2.60;;;;;;;;;;5112587;28;20229;-53
2022/09/12 04:42:03;;;;;;;3.03;2.50;;;;;;;;;;5110046;28;20217;-50
2022/09/12 04:44:30;;;;;;;4.00;2.70;;;;;;;;;;5114480;28;20222;-55
2022/09/12 04:46:57;;;;;;;11.65;5.32;;;;;;;;;;5111928;28;20716;-53
2022/09/12 04:49:24;;;;;;;3.15;2.70;;;;;;;;;;5112333;28;20275;-55
2022/09/12 04:51:52;;;;;;;3.20;2.30;;;;;;;;;;5112216;27;20632;-57
2022/09/12 04:54:20;;;;;;;5.68;2.88;;;;;;;;;;5113960;28;20237;-57
2022/09/12 04:56:48;;;;;;;2.88;2.50;;;;;;;;;;5112677;28;20229;-55
2022/09/12 04:59:16;;;;;;;4.47;3.13;;;;;;;;;;5112422;28;20222;-52
2022/09/12 05:01:43;;;;;;;8.13;4.57;;;;;;;;;;5113988;27;20261;-52
2022/09/12 05:04:13;;;;;;;4.30;2.63;;;;;;;;;;5114313;28;20533;-53
2022/09/12 05:06:41;;;;;;;8.30;4.28;;;;;;;;;;5114834;27;20214;-57
2022/09/12 05:09:10;;;;;;;3.42;2.67;;;;;;;;;;5114383;28;20226;-49
2022/09/12 05:11:39;;;;;;;6.15;2.55;;;;;;;;;;5116219;27;20237;-55
2022/09/12 05:14:27;;;;;;;3.45;2.60;;;;;;;;;;5116712;28;20225;-54
2022/09/12 05:16:58;;;;;;;3.92;2.33;;;;;;;;;;5116547;27;20263;-56
2022/09/12 05:19:26;;;;;;;3.30;2.20;;;;;;;;;;5117658;28;20233;-50
2022/09/12 05:21:53;;;;;;;4.00;2.30;;;;;;;;;;5118046;28;20259;-53
2022/09/12 05:24:21;;;;;;;3.28;2.25;;;;;;;;;;5118428;28;20289;-53
2022/09/12 05:26:47;;;;;;;3.15;2.33;;;;;;;;;;5118467;28;20213;-51
2022/09/12 05:29:15;;;;;;;4.10;2.42;;;;;;;;;;5117689;28;20225;-57
2022/09/12 05:31:42;;;;;;;3.90;2.00;;;;;;;;;;5118083;28;20231;-50
2022/09/12 05:34:09;;;;;;;3.53;1.90;;;;;;;;;;5117654;28;20285;-53
2022/09/12 05:36:37;;;;;;;1.60;1.50;;;;;;;;;;5117233;28;20579;-50
2022/09/12 05:39:04;;;;;;;1.77;1.50;;;;;;;;;;5116254;27;20198;-50
2022/09/12 05:41:32;;;;;;;1.40;1.30;;;;;;;;;;5117477;28;20198;-50
2022/09/12 05:44:02;;;;;;;2.03;1.80;;;;;;;;;;5117817;28;20217;-54
2022/09/12 05:46:30;;;;;;;2.65;1.65;;;;;;;;;;5117941;28;20289;-51
2022/09/12 05:49:03;;;;;;;1.40;1.30;;;;;;;;;;5117435;28;20731;-50
2022/09/12 05:51:33;;;;;;;2.10;1.20;;;;;;;;;;5117424;28;20209;-52
2022/09/12 05:54:02;;;;;;;2.15;1.63;;;;;;;;;;5116542;28;20238;-55
2022/09/12 05:56:32;;;;;;;1.50;1.10;;;;;;;;;;5116376;28;20649;-49
2022/09/12 05:59:04;;;;;;;1.48;1.38;;;;;;;;;;5117851;28;20213;-54
2022/09/12 06:01:32;;;;;;;1.38;0.90;;;;;;;;;;5117118;28;20209;-50
2022/09/12 06:04:02;;;;;;;1.95;1.50;;;;;;;;;;5117398;28;20218;-55
2022/09/12 06:06:30;;;;;;;2.08;1.17;;;;;;;;;;5117331;28;20194;-54
2022/09/12 06:08:59;;;;;;;1.83;1.20;;;;;;;;;;5116039;28;20214;-51
2022/09/12 06:11:29;;;;;;;1.50;1.27;;;;;;;;;;5116515;28;20289;-53
2022/09/12 06:13:56;;;;;;;4.32;1.45;;;;;;;;;;5117088;28;20217;-50
2022/09/12 06:16:28;;;;;;;1.52;1.17;;;;;;;;;;5115671;28;20627;-52
2022/09/12 06:18:57;;;;;;;2.03;0.90;;;;;;;;;;5117324;28;20202;-54
2022/09/12 06:21:25;;;;;;;2.35;1.33;;;;;;;;;;5115910;28;20276;-51
2022/09/12 06:23:53;;;;;;;1.98;1.20;;;;;;;;;;5116788;28;20202;-54
2022/09/12 06:26:23;;;;;;;1.73;1.35;;;;;;;;;;5117051;27;20202;-53
2022/09/12 06:28:51;;;;;;;2.50;1.77;;;;;;;;;;5117133;28;20213;-51
2022/09/12 06:31:24;;;;;;;2.35;1.25;;;;;;;;;;5117064;28;20562;-52
2022/09/12 06:33:53;;;;;;;2.55;1.20;;;;;;;;;;5116892;28;20217;-51
2022/09/12 06:36:22;;;;;;;4.40;1.17;;;;;;;;;;5116837;28;20271;-50
2022/09/12 06:38:57;;;;;;;2.08;1.33;;;;;;;;;;5117012;28;20216;-51
2022/09/12 06:41:24;;;;;;;1.77;1.20;;;;;;;;;;5116488;28;20223;-52
2022/09/12 06:43:52;;;;;;;1.15;1.05;;;;;;;;;;5116792;28;20289;-51
2022/09/12 06:46:19;;;;;;;1.15;1.00;;;;;;;;;;5116438;28;20296;-50
2022/09/12 06:48:46;;;;;;;1.45;1.20;;;;;;;;;;5116322;28;20524;-53
2022/09/12 06:51:15;;;;;;;5.97;1.40;;;;;;;;;;5116176;28;20217;-51
2022/09/12 06:53:43;;;;;;;3.00;1.60;;;;;;;;;;5115082;28;20225;-56
2022/09/12 06:56:17;;;;;;;1.70;1.00;;;;;;;;;;5114342;28;20828;-51
2022/09/12 06:58:47;;;;;;;1.50;1.20;;;;;;;;;;5116141;28;20232;-54
2022/09/12 07:01:21;;;;;;;1.23;1.02;;;;;;;;;;5115295;28;20497;-50
2022/09/12 07:03:52;;;;;;;1.40;1.08;;;;;;;;;;5117069;28;20282;-50
2022/09/12 07:06:23;;;;;;;2.60;1.27;;;;;;;;;;5116353;28;20267;-52
2022/09/12 07:08:50;;;;;;;1.05;0.95;;;;;;;;;;5116629;28;20190;-52
2022/09/12 07:11:22;;;;;;;2.25;1.48;;;;;;;;;;5116024;28;20226;-51
2022/09/12 07:13:51;;;;;;;2.20;1.10;;;;;;;;;;5115850;28;20224;-51
2022/09/12 07:16:18;;;;;;;1.60;1.10;;;;;;;;;;5115686;28;20567;-51
2022/09/12 07:18:57;;;;;;;1.73;1.25;;;;;;;;;;5115707;28;20696;-55
2022/09/12 07:21:24;;;;;;;3.10;1.40;;;;;;;;;;5114774;28;20194;-51
2022/09/12 07:23:54;;;;;;;1.58;1.30;;;;;;;;;;5115477;28;20198;-52
2022/09/12 07:26:20;;;;;;;1.48;1.00;;;;;;;;;;5115307;28;20204;-55
2022/09/12 07:28:54;;;;;;;1.42;1.10;;;;;;;;;;5116215;28;20266;-54
2022/09/12 07:31:38;;;;;;;1.80;1.42;;;;;;;;;;5115837;28;20593;-51
2022/09/12 07:34:05;;;;;;;2.80;1.10;;;;;;;;;;5115541;28;20221;-55
2022/09/12 07:36:33;;;;;;;2.28;1.15;;;;;;;;;;5114213;28;20194;-50
2022/09/12 07:39:00;;;;;;;1.30;1.10;;;;;;;;;;5115803;28;20202;-51
2022/09/12 07:41:29;;;;;;;1.33;1.20;;;;;;;;;;5114508;28;20206;-54
2022/09/12 07:43:57;;;;;;;1.10;1.00;;;;;;;;;;5113640;28;20209;-51
2022/09/12 07:46:28;;;;;;;1.27;0.90;;;;;;;;;;5113787;28;20202;-56
2022/09/12 07:48:57;;;;;;;0.90;0.90;;;;;;;;;;5114621;28;20230;-57
2022/09/12 07:51:26;;;;;;;1.15;0.95;;;;;;;;;;5115605;28;20198;-53
2022/09/12 07:53:53;;;;;;;1.40;1.10;;;;;;;;;;5131175;27;20310;-50
2022/09/12 07:56:20;;;;;;;3.67;1.70;;;;;;;;;;5115477;28;20649;-51
2022/09/12 07:58:53;;;;;;;1.42;1.05;;;;;;;;;;5114519;28;20202;-52
2022/09/12 08:01:23;;;;;;;3.45;1.27;;;;;;;;;;5114112;28;20224;-51
2022/09/12 08:03:56;;;;;;;2.05;1.20;;;;;;;;;;5115022;28;20748;-55
2022/09/12 08:06:25;;;;;;;2.65;1.70;;;;;;;;;;5115620;28;20194;-55
2022/09/12 08:08:54;;;;;;;2.05;1.40;;;;;;;;;;5114396;28;20236;-52
2022/09/12 08:11:22;;;;;;;2.58;1.20;;;;;;;;;;5114245;28;20202;-57
2022/09/12 08:13:51;;;;;;;1.27;1.02;;;;;;;;;;5114859;28;20310;-53
2022/09/12 08:16:24;;;;;;;1.33;1.23;;;;;;;;;;5115261;28;20190;-52
2022/09/12 08:18:51;;;;;;;1.33;1.23;;;;;;;;;;5115348;28;20213;-55
2022/09/12 08:21:21;;;;;;;1.25;1.15;;;;;;;;;;5114735;28;20201;-56
2022/09/12 08:23:52;;;;;;;1.55;1.45;;;;;;;;;;5114300;28;20513;-50
2022/09/12 08:26:20;;;;;;;2.65;1.20;;;;;;;;;;5114139;28;20228;-56
2022/09/12 08:28:47;;;;;;;2.13;1.42;;;;;;;;;;5114808;28;20206;-53
2022/09/12 08:31:17;;;;;;;1.95;1.70;;;;;;;;;;5114725;28;20390;-53
2022/09/12 08:33:44;;;;;;;1.35;1.25;;;;;;;;;;5117986;28;20666;-54
2022/09/12 08:36:14;;;;;;;1.42;1.33;;;;;;;;;;5118786;28;20194;-52
2022/09/12 08:38:43;;;;;;;2.00;1.48;;;;;;;;;;5118853;28;20201;-52
2022/09/12 08:41:23;;;;;;;1.52;1.30;;;;;;;;;;5118403;28;20213;-51
2022/09/12 08:44:10;;;;;;;1.10;1.00;;;;;;;;;;5117926;28;20202;-52
2022/09/12 08:46:44;;;;;;;2.20;1.30;;;;;;;;;;5118809;27;20193;-57
2022/09/12 08:49:22;;;;;;;1.65;1.10;;;;;;;;;;5116907;28;20244;-54
2022/09/12 08:51:49;;;;;;;1.90;1.58;;;;;;;;;;5116436;28;20280;-51
2022/09/12 08:54:26;;;;;;;6.15;1.65;;;;;;;;;;5117169;28;20693;-51
2022/09/12 08:57:04;;;;;;;2.17;1.40;;;;;;;;;;5117523;28;20198;-54
2022/09/12 08:59:45;;;;;;;1.92;1.65;;;;;;;;;;5118683;28;20266;-52
2022/09/12 09:02:37;;;;;;;1.60;1.50;;;;;;;;;;5117536;28;20190;-52
2022/09/12 09:05:16;;;;;;;2.22;1.70;;;;;;;;;;5117478;28;20197;-56
2022/09/12 09:08:12;;;;;;;3.83;1.58;;;;;;;;;;5117593;28;20280;-53
2022/09/12 09:10:54;;;;;;;1.58;1.48;;;;;;;;;;5117791;28;20210;-52
2022/09/12 09:16:56;;;;;;;7.80;2.00;;;;;;;;;;5118302;28;20209;-55
2022/09/12 09:19:36;;;;;;;1.58;1.38;;;;;;;;;;5075894;28;20203;-55
2022/09/12 09:22:12;;;;;;;1.65;1.55;;;;;;;;;;5075903;28;20198;-52
2022/09/12 09:24:43;;;;;;;2.03;1.55;;;;;;;;;;5075820;28;20227;-56
2022/09/12 09:27:21;;;;;;;2.10;1.90;;;;;;;;;;5075601;28;20636;-54
2022/09/12 09:30:17;;;;;;;1.80;1.70;;;;;;;;;;5075514;28;20207;-57
2022/09/12 09:32:49;;;;;;;2.05;1.70;;;;;;;;;;5074725;28;20266;-55
2022/09/12 09:35:27;;;;;;;1.90;1.80;;;;;;;;;;5075119;28;20223;-55
2022/09/12 09:38:17;;;;;;;2.90;1.90;;;;;;;;;;5075696;28;20199;-55
2022/09/12 09:40:50;;;;;;;2.25;1.80;;;;;;;;;;5047010;28;20203;-52
2022/09/12 09:43:21;;;;;;;2.13;1.90;;;;;;;;;;5074883;28;20207;-54
2022/09/12 09:45:50;;;;;;;2.65;1.88;;;;;;;;;;5073791;28;20210;-52
2022/09/12 09:48:30;;;;;;;2.67;1.60;;;;;;;;;;5074884;28;20287;-56
2022/09/12 09:50:59;;;;;;;1.95;1.75;;;;;;;;;;5058320;28;20631;-55
2022/09/12 09:53:57;;;;;;;2.75;1.95;;;;;;;;;;5074458;28;20292;-56
2022/09/12 09:56:41;;;;;;;2.10;1.75;;;;;;;;;;5090026;28;20202;-55
2022/09/12 09:59:16;;;;;;;2.30;1.58;;;;;;;;;;5117581;28;20604;-55
2022/09/12 10:01:50;;;;;;;2.00;1.80;;;;;;;;;;5117500;28;20205;-55
2022/09/12 10:04:22;;;;;;;3.88;1.90;;;;;;;;;;5117648;28;20242;-55
2022/09/12 10:06:51;;;;;;;2.03;1.90;;;;;;;;;;5117201;28;20206;-56
2022/09/12 10:09:22;;;;;;;2.50;1.80;;;;;;;;;;5116472;28;20194;-56
2022/09/12 10:11:51;;;;;;;2.17;1.98;;;;;;;;;;5117030;28;20210;-52
2022/09/12 10:14:29;;;;;;;2.70;2.40;;;;;;;;;;5117711;28;20230;-55
2022/09/12 10:16:57;;;;;;;2.45;2.25;;;;;;;;;;5117279;28;20271;-57
2022/09/12 10:19:39;;;;;;;3.90;2.20;;;;;;;;;;5116775;28;20209;-53
2022/09/12 10:22:06;;;;;;;6.63;1.90;;;;;;;;;;5117307;28;20631;-57
2022/09/12 10:24:40;;;;;;;2.20;2.00;;;;;;;;;;5116034;28;20208;-57
2022/09/12 10:27:16;;;;;;;3.35;1.90;;;;;;;;;;5116873;28;20244;-54
2022/09/12 10:29:50;;;;;;;2.38;2.15;;;;;;;;;;5116624;28;20194;-55
2022/09/12 10:32:22;;;;;;;2.38;1.90;;;;;;;;;;5116846;28;20177;-56
2022/09/12 10:34:59;;;;;;;2.38;2.15;;;;;;;;;;5115831;28;20222;-56
2022/09/12 10:37:35;;;;;;;2.53;1.90;;;;;;;;;;5116445;27;20637;-57
2022/09/12 10:40:04;;;;;;;4.03;2.35;;;;;;;;;;5114895;28;20229;-57
2022/09/12 10:42:51;;;;;;;2.50;2.30;;;;;;;;;;5116821;28;20658;-56
2022/09/12 10:45:20;;;;;;;2.88;2.08;;;;;;;;;;5114303;28;20202;-58
2022/09/12 10:47:48;;;;;;;2.38;2.10;;;;;;;;;;5115375;28;20217;-59
2022/09/12 10:50:23;;;;;;;2.25;2.05;;;;;;;;;;5115147;28;20273;-58
2022/09/12 10:52:50;;;;;;;3.80;2.50;;;;;;;;;;5116097;28;20565;-59
2022/09/12 10:55:16;;;;;;;3.60;2.50;;;;;;;;;;5114534;28;20252;-59
2022/09/12 10:57:52;;;;;;;2.13;1.98;;;;;;;;;;5114684;28;20213;-59
2022/09/12 11:00:26;;;;;;;2.92;2.33;;;;;;;;;;5114553;28;20599;-59
2022/09/12 11:03:00;;;;;;;3.70;2.47;;;;;;;;;;5115241;28;20625;-59
2022/09/12 11:05:36;;;;;;;2.70;2.50;;;;;;;;;;5115120;28;20239;-59
2022/09/12 11:08:39;;;;;;;3.33;2.22;;;;;;;;;;5115024;28;20188;-59
2022/09/12 11:11:42;;;;;;;2.40;2.20;;;;;;;;;;5110293;28;20204;-59
2022/09/12 11:14:22;;;;;;;3.08;2.78;;;;;;;;;;5107147;28;20225;-59
2022/09/12 11:17:24;;;;;;;2.63;2.42;;;;;;;;;;5115700;28;20208;-59
2022/09/12 11:19:55;;;;;;;3.47;2.42;;;;;;;;;;5115257;28;20255;-59
2022/09/12 11:22:34;;;;;;;3.20;2.30;;;;;;;;;;5115973;28;20255;-58
2022/09/12 11:25:25;;;;;;;3.38;3.03;;;;;;;;;;5114637;28;20622;-60
2022/09/12 11:28:17;;;;;;;2.95;2.40;;;;;;;;;;5112837;28;20186;-59
2022/09/12 11:31:08;;;;;;;2.50;2.30;;;;;;;;;;5114661;27;20183;-59
2022/09/12 11:33:41;;;;;;;2.47;2.28;;;;;;;;;;5116001;28;20210;-59
2022/09/12 11:36:34;;;;;;;3.03;2.17;;;;;;;;;;5115425;28;20281;-59
2022/09/12 11:39:04;;;;;;;2.42;2.20;;;;;;;;;;5106637;28;20938;-59
2022/09/12 11:41:41;;;;;;;2.50;2.30;;;;;;;;;;5113616;28;20254;-59
2022/09/12 11:44:28;;;;;;;2.28;2.00;;;;;;;;;;5113122;28;20186;-59
2022/09/12 11:46:56;;;;;;;3.03;2.28;;;;;;;;;;5113966;28;20623;-59
2022/09/12 11:49:55;;;;;;;2.40;2.20;;;;;;;;;;5111785;28;20514;-59
2022/09/12 11:52:24;;;;;;;2.58;2.38;;;;;;;;;;5110992;28;20224;-59
2022/09/12 11:55:17;;;;;;;2.40;2.20;;;;;;;;;;5114290;28;20316;-59
2022/09/12 11:57:55;;;;;;;3.05;2.75;;;;;;;;;;5112685;28;20620;-58
2022/09/12 12:00:26;;;;;;;3.20;2.67;;;;;;;;;;5111673;28;20193;-58
2022/09/12 12:03:02;;;;;;;2.95;2.58;;;;;;;;;;5113090;28;20190;-58
2022/09/12 12:05:41;;;;;;;3.35;2.60;;;;;;;;;;5110978;28;20254;-58
2022/09/12 12:08:09;;;;;;;5.38;3.00;;;;;;;;;;5095348;28;20206;-58
2022/09/12 12:10:42;;;;;;;3.60;2.65;;;;;;;;;;5112808;28;20201;-58
2022/09/12 12:13:18;;;;;;;3.78;2.90;;;;;;;;;;5109864;28;20574;-58
2022/09/12 12:15:53;;;;;;;5.57;3.20;;;;;;;;;;5112814;28;20291;-58
2022/09/12 12:18:28;;;;;;;3.45;3.15;;;;;;;;;;5112826;28;20204;-58
2022/09/12 12:20:56;;;;;;;3.83;3.17;;;;;;;;;;5111637;28;20269;-59
2022/09/12 12:23:28;;;;;;;3.95;2.83;;;;;;;;;;5109375;28;20201;-59
2022/09/12 12:25:58;;;;;;;4.20;3.03;;;;;;;;;;5112358;28;20185;-58
2022/09/12 12:28:40;;;;;;;3.10;2.80;;;;;;;;;;5111774;28;20516;-59
2022/09/12 12:31:09;;;;;;;2.83;2.53;;;;;;;;;;5106729;28;20292;-59
2022/09/12 12:33:36;;;;;;;3.17;2.55;;;;;;;;;;5103948;28;20201;-58
2022/09/12 12:36:06;;;;;;;2.72;2.50;;;;;;;;;;5109478;28;20239;-59
2022/09/12 12:38:35;;;;;;;2.70;2.50;;;;;;;;;;5107874;28;20226;-58
2022/09/12 12:41:17;;;;;;;2.92;2.55;;;;;;;;;;5111701;28;20297;-59
2022/09/12 12:43:48;;;;;;;2.60;2.40;;;;;;;;;;5110458;28;20214;-58
2022/09/12 12:46:21;;;;;;;4.88;2.38;;;;;;;;;;5112480;28;20225;-58
2022/09/12 12:48:52;;;;;;;2.65;2.33;;;;;;;;;;5090912;28;20230;-58
2022/09/12 12:51:54;;;;;;;2.70;2.50;;;;;;;;;;5110716;28;20233;-59
2022/09/12 12:54:31;;;;;;;2.65;2.33;;;;;;;;;;5087318;28;20263;-59
2022/09/12 12:57:16;;;;;;;4.30;2.30;;;;;;;;;;5110962;27;20604;-58
2022/09/12 13:00:03;;;;;;;2.72;2.28;;;;;;;;;;5109425;28;20217;-59
2022/09/12 13:02:35;;;;;;;2.70;2.47;;;;;;;;;;5111169;28;20647;-58
2022/09/12 13:05:05;;;;;;;4.10;2.78;;;;;;;;;;5107837;28;20218;-59
2022/09/12 13:07:35;;;;;;;3.50;2.35;;;;;;;;;;5108564;28;20222;-59
2022/09/12 13:10:06;;;;;;;2.50;2.30;;;;;;;;;;5106766;28;20732;-59
2022/09/12 13:12:37;;;;;;;2.20;2.00;;;;;;;;;;5106511;28;20275;-58
2022/09/12 13:15:36;;;;;;;2.90;2.60;;;;;;;;;;5107037;28;20257;-59
2022/09/12 13:18:12;;;;;;;1.95;1.75;;;;;;;;;;5108639;28;20221;-59
2022/09/12 13:20:54;;;;;;;1.70;1.60;;;;;;;;;;5114694;28;20217;-59
2022/09/12 13:23:24;;;;;;;2.30;1.67;;;;;;;;;;5097237;28;20234;-59
2022/09/12 13:25:53;;;;;;;2.00;1.80;;;;;;;;;;5111944;27;20438;-59
2022/09/12 13:28:20;;;;;;;2.40;1.90;;;;;;;;;;5113662;27;20309;-59
2022/09/12 13:30:54;;;;;;;2.03;1.83;;;;;;;;;;5115337;28;20221;-59
2022/09/12 13:33:54;;;;;;;2.38;2.00;;;;;;;;;;5113433;27;20642;-58
2022/09/12 13:36:40;;;;;;;2.17;1.70;;;;;;;;;;5109422;28;20551;-58
2022/09/12 13:39:16;;;;;;;2.67;1.90;;;;;;;;;;5114081;27;20209;-59
2022/09/12 13:42:12;;;;;;;3.28;2.40;;;;;;;;;;5113771;28;20213;-59
2022/09/12 13:45:04;;;;;;;1.90;1.70;;;;;;;;;;5112823;28;20712;-59
2022/09/12 13:47:35;;;;;;;1.90;1.80;;;;;;;;;;5112908;28;20544;-59
2022/09/12 13:50:04;;;;;;;1.70;1.60;;;;;;;;;;5111983;28;20222;-60
2022/09/12 13:52:32;;;;;;;2.13;1.92;;;;;;;;;;5096132;28;20221;-61
2022/09/12 13:55:01;;;;;;;3.10;1.60;;;;;;;;;;5116050;27;20291;-62
2022/09/12 13:57:31;;;;;;;2.25;1.70;;;;;;;;;;5116030;28;20253;-61
2022/09/12 14:00:00;;;;;;;3.08;1.60;;;;;;;;;;5116161;28;20242;-61
2022/09/12 14:02:28;;;;;;;1.77;1.60;;;;;;;;;;5114555;28;20222;-61
2022/09/12 14:05:10;;;;;;;3.55;2.20;;;;;;;;;;5114494;28;20253;-62
2022/09/12 14:07:43;;;;;;;3.53;1.80;;;;;;;;;;5114484;28;20226;-61
2022/09/12 14:10:15;;;;;;;1.50;1.38;;;;;;;;;;5116093;28;20294;-61
2022/09/12 14:12:49;;;;;;;1.50;1.40;;;;;;;;;;5115426;28;20599;-62
2022/09/12 14:15:22;;;;;;;1.05;1.00;;;;;;;;;;5116204;28;20245;-60
2022/09/12 14:17:51;;;;;;;1.90;1.33;;;;;;;;;;5115538;28;20230;-61
2022/09/12 14:20:19;;;;;;;2.15;1.08;;;;;;;;;;5115271;28;20674;-60
2022/09/12 14:22:47;;;;;;;1.80;1.10;;;;;;;;;;5115233;28;20532;-61
2022/09/12 14:25:23;;;;;;;1.38;1.23;;;;;;;;;;5114397;28;20230;-60
2022/09/12 14:27:53;;;;;;;1.90;1.70;;;;;;;;;;5115189;28;20232;-61
2022/09/12 14:30:25;;;;;;;2.00;1.58;;;;;;;;;;5114234;28;20269;-61
2022/09/12 14:33:11;;;;;;;3.58;1.90;;;;;;;;;;5115097;28;20226;-61
2022/09/12 14:36:08;;;;;;;2.88;2.10;;;;;;;;;;5102299;28;20303;-59
2022/09/12 14:38:39;;;;;;;2.33;1.75;;;;;;;;;;5094843;28;20231;-62
2022/09/12 14:41:08;;;;;;;2.45;2.25;;;;;;;;;;5094426;28;20227;-62
2022/09/12 14:43:37;;;;;;;4.72;2.83;;;;;;;;;;5094391;28;20226;-60
2022/09/12 14:46:07;;;;;;;5.18;2.90;;;;;;;;;;5094293;28;20237;-61
2022/09/12 14:48:36;;;;;;;3.90;2.60;;;;;;;;;;5094241;28;20262;-60
2022/09/12 14:51:04;;;;;;;3.45;2.70;;;;;;;;;;5093957;28;20234;-63
2022/09/12 14:53:34;;;;;;;3.17;2.80;;;;;;;;;;5107299;28;20254;-59
2022/09/12 14:56:12;;;;;;;3.30;2.70;;;;;;;;;;5101971;28;20229;-60
2022/09/12 14:58:39;;;;;;;3.08;2.78;;;;;;;;;;5115227;28;20291;-58
2022/09/12 15:01:07;;;;;;;3.17;2.88;;;;;;;;;;5106895;28;20713;-60
2022/09/12 15:03:40;;;;;;;3.72;2.97;;;;;;;;;;5102349;28;20245;-60
2022/09/12 15:06:38;;;;;;;6.57;4.25;;;;;;;;;;5113327;27;20229;-60
2022/09/12 15:09:11;;;;;;;9.77;5.78;;;;;;;;;;5109480;28;20246;-58
2022/09/12 15:11:38;;;;;;;6.40;5.78;;;;;;;;;;5101846;28;20225;-60
2022/09/12 15:14:14;;;;;;;7.60;6.00;;;;;;;;;;5115173;28;20218;-60
2022/09/12 15:16:42;;;;;;;9.68;6.47;;;;;;;;;;5115107;28;20308;-59
2022/09/12 15:19:09;;;;;;;9.05;7.70;;;;;;;;;;5115000;28;20233;-60
2022/09/12 15:21:36;;;;;;;7.88;6.57;;;;;;;;;;5114495;28;20229;-61
2022/09/12 15:24:03;;;;;;;8.43;6.25;;;;;;;;;;5115026;28;20584;-61